Jim Thorpe, Pennsylvania
Current Conditions -  °F | °C
As of 1:35 PM on Thursday 30 Oct 2014 (Local Time) from KHZL Reporting Station
Overcast Overcast  
Wind Chill: 44°   Ceiling: 3700
Heat Index: 46°   Visibility: 10mi
Dew Point: 34°   Wind: 6mph
Humidity: 62%   Direction: 280°W
Pressure: 30.03"   Gusts: NA
Location:  40.86°N, 75.74°W
Report Text: KHZL 301735Z AUTO 28005KT 10SM SCT029 OVC037 08/01 A3003 RMK AO2
Loading
Personal Weather Stations






























Interactive Weather Map
Tropical Storm Tracking
New forecast layout! Learn more

10-Day Weather Forecast

Advertisements
Track Severe Weather on mobile